createdAt,value
2023-05-10T00:02:02.100Z,73.06
2023-05-10T00:04:28.975Z,73.00
2023-05-10T00:06:55.896Z,73.25
2023-05-10T00:09:22.500Z,73.13
2023-05-10T00:11:49.608Z,73.42
2023-05-10T00:14:16.209Z,73.53
2023-05-10T00:16:42.904Z,73.54
2023-05-10T00:19:09.870Z,73.69
2023-05-10T00:21:36.516Z,73.75
2023-05-10T00:24:03.214Z,73.78
2023-05-10T00:26:29.862Z,74.18
2023-05-10T00:28:56.623Z,74.23
2023-05-10T00:31:23.691Z,74.50
2023-05-10T00:33:50.424Z,74.91
2023-05-10T00:36:16.994Z,74.83
2023-05-10T00:38:43.626Z,75.09
2023-05-10T00:41:10.642Z,74.95
2023-05-10T00:43:37.269Z,74.96
2023-05-10T00:46:04.498Z,75.20
2023-05-10T00:48:31.173Z,75.17
2023-05-10T00:50:57.854Z,75.18
2023-05-10T00:53:25.625Z,75.32
2023-05-10T00:55:52.617Z,75.71
2023-05-10T00:58:19.649Z,75.67
2023-05-10T01:00:47.540Z,75.66
2023-05-10T01:03:14.278Z,75.71
2023-05-10T01:05:41.097Z,75.62
2023-05-10T01:08:09.671Z,75.71
2023-05-10T01:10:36.472Z,76.16
2023-05-10T01:13:04.281Z,76.17
2023-05-10T01:15:32.122Z,76.47
2023-05-10T01:17:59.386Z,76.45
2023-05-10T01:20:26.427Z,76.47
2023-05-10T01:23:06.997Z,76.36
2023-05-10T01:25:47.490Z,76.34
2023-05-10T01:28:28.154Z,76.47
2023-05-10T01:30:57.590Z,76.56
2023-05-10T01:33:38.208Z,76.81
2023-05-10T01:36:09.966Z,76.69
2023-05-10T01:38:47.340Z,77.13
2023-05-10T01:41:20.162Z,76.75
2023-05-10T01:43:46.733Z,77.12
2023-05-10T01:46:19.149Z,77.18
2023-05-10T01:48:50.189Z,77.19
2023-05-10T01:51:18.656Z,77.36
2023-05-10T01:53:47.292Z,77.20
2023-05-10T01:56:14.933Z,77.87
2023-05-10T01:58:43.798Z,77.66
2023-05-10T02:01:11.314Z,77.94
2023-05-10T02:03:39.728Z,77.26
2023-05-10T02:06:07.009Z,77.27
2023-05-10T02:08:36.221Z,77.36
2023-05-10T02:11:03.439Z,77.24
2023-05-10T02:13:31.302Z,77.36
2023-05-10T02:15:58.282Z,77.49
2023-05-10T02:18:27.547Z,77.83
2023-05-10T02:20:55.064Z,77.66
2023-05-10T02:23:22.736Z,77.75
2023-05-10T02:25:50.568Z,78.07
2023-05-10T02:28:18.280Z,77.86
2023-05-10T02:30:45.414Z,78.32
2023-05-10T02:33:12.552Z,78.29
2023-05-10T02:35:39.464Z,78.57
2023-05-10T02:38:07.671Z,78.98
2023-05-10T02:40:35.088Z,78.90
2023-05-10T02:43:03.089Z,78.67
2023-05-10T02:45:31.490Z,79.15
2023-05-10T02:47:58.986Z,78.64
2023-05-10T02:50:28.532Z,78.87
2023-05-10T02:52:57.515Z,79.19
2023-05-10T02:55:27.881Z,78.51
2023-05-10T02:57:57.950Z,78.70
2023-05-10T03:00:25.715Z,79.32
2023-05-10T03:02:52.477Z,79.22
2023-05-10T03:05:20.098Z,79.19
2023-05-10T03:07:47.113Z,78.67
2023-05-10T03:10:14.239Z,79.48
2023-05-10T03:12:50.359Z,79.05
2023-05-10T03:15:17.002Z,79.16
2023-05-10T03:17:57.619Z,79.56
2023-05-10T03:20:29.793Z,79.43
2023-05-10T03:23:06.310Z,79.01
2023-05-10T03:25:33.480Z,79.52
2023-05-10T03:28:02.228Z,79.34
2023-05-10T03:30:29.283Z,79.22
2023-05-10T03:32:56.158Z,79.71
2023-05-10T03:35:22.850Z,79.85
2023-05-10T03:37:49.520Z,79.50
2023-05-10T03:40:16.922Z,79.70
2023-05-10T03:42:43.780Z,79.29
2023-05-10T03:45:10.768Z,79.48
2023-05-10T03:47:37.475Z,79.59
2023-05-10T03:50:04.252Z,79.37
2023-05-10T03:52:30.954Z,79.31
2023-05-10T03:54:57.685Z,79.35
2023-05-10T03:57:24.293Z,79.40
2023-05-10T03:59:51.220Z,79.17
2023-05-10T04:02:17.894Z,79.33
2023-05-10T04:04:44.537Z,79.32
2023-05-10T04:07:11.579Z,79.43
2023-05-10T04:09:38.608Z,79.48
2023-05-10T04:12:05.384Z,79.48
2023-05-10T04:14:32.177Z,79.71
2023-05-10T04:16:59.018Z,79.41
2023-05-10T04:19:25.721Z,79.52
2023-05-10T04:21:52.355Z,79.75
2023-05-10T04:24:18.974Z,79.39
2023-05-10T04:26:45.640Z,79.57
2023-05-10T04:29:12.252Z,79.31
2023-05-10T04:31:38.997Z,78.76
2023-05-10T04:34:06.261Z,78.93
2023-05-10T04:36:35.026Z,78.35
2023-05-10T04:39:01.733Z,77.77
2023-05-10T04:41:28.754Z,76.61
2023-05-10T04:43:55.678Z,75.88
2023-05-10T04:46:22.308Z,75.34
2023-05-10T04:48:49.296Z,74.58
2023-05-10T04:51:15.867Z,73.56
2023-05-10T04:53:46.438Z,72.42
2023-05-10T04:56:18.090Z,71.19
2023-05-10T04:58:44.796Z,70.96
2023-05-10T05:01:11.775Z,69.70
2023-05-10T05:03:38.539Z,69.26
2023-05-10T05:06:05.555Z,68.57
2023-05-10T05:08:32.347Z,67.80
2023-05-10T05:10:58.946Z,65.98
2023-05-10T05:13:25.807Z,64.70
2023-05-10T05:15:52.699Z,63.84
2023-05-10T05:18:19.419Z,62.68
2023-05-10T05:20:46.128Z,61.34
2023-05-10T05:23:12.776Z,60.37
2023-05-10T05:25:39.824Z,59.68
2023-05-10T05:28:06.538Z,58.53
2023-05-10T05:30:33.155Z,57.16
2023-05-10T05:32:59.899Z,56.02
2023-05-10T05:35:26.521Z,54.76
2023-05-10T05:37:53.249Z,53.44
2023-05-10T05:40:19.870Z,53.06
2023-05-10T05:42:46.588Z,51.27
2023-05-10T05:45:17.582Z,49.56
2023-05-10T05:47:44.610Z,48.15
2023-05-10T05:50:11.322Z,47.05
2023-05-10T05:52:37.987Z,44.89
2023-05-10T05:55:04.808Z,41.93
2023-05-10T05:57:31.504Z,40.26
2023-05-10T05:59:58.186Z,38.46
2023-05-10T06:02:24.936Z,35.64
2023-05-10T06:04:51.666Z,33.96
2023-05-10T06:07:18.337Z,33.05
2023-05-10T06:09:45.204Z,31.96
2023-05-10T06:12:12.889Z,31.15
2023-05-10T06:14:39.536Z,31.31
2023-05-10T06:17:06.583Z,32.24
2023-05-10T06:19:33.406Z,33.07
2023-05-10T06:22:00.228Z,33.57
2023-05-10T06:24:28.608Z,34.16
2023-05-10T06:26:55.204Z,35.17
2023-05-10T06:29:21.736Z,35.80
2023-05-10T06:31:49.406Z,36.50
2023-05-10T06:34:16.216Z,37.32
2023-05-10T06:36:43.373Z,38.27
2023-05-10T06:39:10.200Z,37.92
2023-05-10T06:41:36.984Z,38.07
2023-05-10T06:44:04.206Z,38.78
2023-05-10T06:46:31.148Z,39.93
2023-05-10T06:48:57.987Z,39.65
2023-05-10T06:51:24.928Z,40.60
2023-05-10T06:53:51.690Z,40.80
2023-05-10T06:56:18.444Z,41.04
2023-05-10T06:58:45.250Z,41.64
2023-05-10T07:01:12.200Z,41.67
2023-05-10T07:03:38.979Z,41.88
2023-05-10T07:06:06.437Z,42.02
2023-05-10T07:08:33.230Z,41.83
2023-05-10T07:11:08.519Z,42.11
2023-05-10T07:13:35.776Z,42.04
2023-05-10T07:16:03.387Z,42.46
2023-05-10T07:18:30.736Z,42.80
2023-05-10T07:20:58.439Z,42.35
2023-05-10T07:23:25.257Z,42.49
2023-05-10T07:25:55.207Z,42.41
2023-05-10T07:28:22.015Z,42.81
2023-05-10T07:30:49.309Z,43.37
2023-05-10T07:33:17.114Z,43.95
2023-05-10T07:35:44.263Z,43.50
2023-05-10T07:38:12.326Z,43.43
2023-05-10T07:40:40.477Z,43.21
2023-05-10T07:43:07.561Z,43.47
2023-05-10T07:45:34.713Z,42.91
2023-05-10T07:48:01.666Z,42.82
2023-05-10T07:50:28.875Z,42.54
2023-05-10T07:52:55.586Z,42.36
2023-05-10T07:55:25.125Z,41.87
2023-05-10T07:57:51.992Z,41.72
2023-05-10T08:00:19.748Z,41.57
2023-05-10T08:02:47.803Z,41.88
2023-05-10T08:05:14.707Z,41.10
2023-05-10T08:07:41.784Z,41.11
2023-05-10T08:10:08.988Z,40.71
2023-05-10T08:12:35.807Z,40.29
2023-05-10T08:15:02.576Z,40.28
2023-05-10T08:17:29.429Z,40.35
2023-05-10T08:19:56.219Z,39.78
2023-05-10T08:22:23.172Z,39.36
2023-05-10T08:24:49.980Z,40.03
2023-05-10T08:27:16.590Z,39.83
2023-05-10T08:29:50.058Z,39.68
2023-05-10T08:32:17.833Z,38.69
2023-05-10T08:34:44.715Z,39.43
2023-05-10T08:37:14.460Z,40.04
2023-05-10T08:39:41.960Z,39.54
2023-05-10T08:42:09.479Z,37.55
2023-05-10T08:44:37.764Z,37.89
2023-05-10T08:47:06.786Z,37.31
2023-05-10T08:49:34.160Z,37.32
2023-05-10T08:52:04.320Z,38.02
2023-05-10T08:54:32.562Z,38.03
2023-05-10T08:56:59.714Z,38.18
2023-05-10T08:59:26.607Z,38.15
2023-05-10T09:01:54.907Z,38.12
2023-05-10T09:04:22.271Z,38.84
2023-05-10T09:06:49.724Z,38.89
2023-05-10T09:09:17.466Z,38.88
2023-05-10T09:11:44.951Z,38.59
2023-05-10T09:14:13.749Z,38.09
2023-05-10T09:16:41.483Z,38.34
2023-05-10T09:19:09.861Z,38.51
2023-05-10T09:21:39.440Z,38.70
2023-05-10T09:24:09.707Z,38.50
2023-05-10T09:26:37.202Z,38.35
2023-05-10T09:29:04.684Z,37.63
2023-05-10T09:31:45.861Z,37.97
2023-05-10T09:34:12.939Z,38.21
2023-05-10T09:36:51.315Z,38.11
2023-05-10T09:39:19.049Z,38.02
2023-05-10T09:41:45.661Z,37.88
2023-05-10T09:44:12.400Z,37.10
2023-05-10T09:46:39.432Z,36.16
2023-05-10T09:49:06.816Z,35.69
2023-05-10T09:51:36.107Z,35.79
2023-05-10T09:54:10.566Z,37.25
2023-05-10T09:56:38.761Z,36.66
2023-05-10T09:59:05.983Z,36.37
2023-05-10T10:01:33.005Z,34.68
2023-05-10T10:03:59.937Z,35.69
2023-05-10T10:06:30.436Z,36.54
2023-05-10T10:08:57.936Z,36.38
2023-05-10T10:11:25.030Z,36.64
2023-05-10T10:13:51.998Z,37.84
2023-05-10T10:16:18.688Z,37.20
2023-05-10T10:18:45.634Z,36.82
2023-05-10T10:21:14.638Z,36.93
2023-05-10T10:23:41.423Z,37.67
2023-05-10T10:26:08.629Z,37.25
2023-05-10T10:28:49.724Z,37.94
2023-05-10T10:31:40.447Z,37.03
2023-05-10T10:34:08.388Z,36.39
2023-05-10T10:36:41.911Z,36.58
2023-05-10T10:39:11.021Z,36.49
2023-05-10T10:41:38.857Z,36.05
2023-05-10T10:44:19.713Z,35.52
2023-05-10T10:47:00.370Z,35.60
2023-05-10T10:49:27.982Z,35.54
2023-05-10T10:52:08.616Z,36.87
2023-05-10T10:54:37.266Z,36.44
2023-05-10T10:57:14.790Z,36.41
2023-05-10T10:59:48.219Z,36.27
2023-05-10T11:02:30.676Z,35.85
2023-05-10T11:04:58.135Z,35.67
2023-05-10T11:07:25.791Z,35.43
2023-05-10T11:09:53.034Z,36.53
2023-05-10T11:12:19.728Z,35.81
2023-05-10T11:14:50.936Z,37.08
2023-05-10T11:17:25.146Z,36.01
2023-05-10T11:20:05.848Z,35.58
2023-05-10T11:22:50.848Z,35.97
2023-05-10T11:25:17.611Z,37.35
2023-05-10T11:27:44.506Z,36.95
2023-05-10T11:30:12.213Z,36.13
2023-05-10T11:32:40.137Z,35.45
2023-05-10T11:35:10.821Z,35.68
2023-05-10T11:37:37.626Z,36.20
2023-05-10T11:40:04.724Z,35.90
2023-05-10T11:42:31.684Z,35.96
2023-05-10T11:44:58.522Z,35.56
2023-05-10T11:47:25.517Z,36.20
2023-05-10T11:49:52.917Z,36.89
2023-05-10T11:52:20.345Z,35.52
2023-05-10T11:54:52.201Z,35.15
2023-05-10T11:57:26.833Z,35.19
2023-05-10T11:59:57.955Z,35.69
2023-05-10T12:02:25.240Z,35.55
2023-05-10T12:04:52.526Z,35.10
2023-05-10T12:07:19.474Z,35.90
2023-05-10T12:10:03.471Z,35.89
2023-05-10T12:12:40.570Z,35.84
2023-05-10T12:15:11.660Z,35.14
2023-05-10T12:17:39.896Z,35.44
2023-05-10T12:20:21.494Z,35.27
2023-05-10T12:22:52.798Z,34.82
2023-05-10T12:25:20.391Z,34.69
2023-05-10T12:27:53.224Z,34.32
2023-05-10T12:33:08.365Z,34.76
2023-05-10T12:35:44.876Z,35.47
2023-05-10T12:38:26.295Z,35.40
2023-05-10T12:40:53.044Z,35.31
2023-05-10T12:43:19.768Z,35.95
2023-05-10T12:45:49.214Z,34.91
2023-05-10T12:48:16.331Z,36.58
2023-05-10T12:50:43.022Z,35.83
2023-05-10T12:53:09.821Z,36.31
2023-05-10T12:55:36.523Z,35.75
2023-05-10T12:58:03.194Z,35.37
2023-05-10T13:00:29.912Z,35.20
2023-05-10T13:02:56.557Z,35.79
2023-05-10T13:05:23.198Z,35.19
2023-05-10T13:07:50.025Z,35.53
2023-05-10T13:10:17.369Z,35.88
2023-05-10T13:12:44.453Z,36.45
2023-05-10T13:17:52.263Z,35.99
2023-05-10T13:20:19.039Z,36.27
2023-05-10T13:22:46.078Z,36.75
2023-05-10T13:25:13.195Z,36.76
2023-05-10T13:27:43.075Z,36.24
2023-05-10T13:30:10.124Z,36.54
2023-05-10T13:32:37.116Z,37.66
2023-05-10T13:35:07.483Z,36.48
2023-05-10T13:37:36.784Z,36.31
2023-05-10T13:40:03.810Z,36.35
2023-05-10T13:42:30.461Z,37.10
2023-05-10T13:44:56.948Z,36.84
2023-05-10T13:47:23.556Z,36.46
2023-05-10T13:49:50.070Z,37.20
2023-05-10T13:52:16.821Z,36.53
2023-05-10T13:54:43.598Z,37.29
2023-05-10T13:57:10.189Z,37.43
2023-05-10T13:59:36.803Z,37.31
2023-05-10T14:02:17.022Z,37.60
2023-05-10T14:04:43.730Z,36.63
2023-05-10T14:07:10.469Z,36.88
2023-05-10T14:09:37.296Z,36.83
2023-05-10T14:12:04.552Z,36.87
2023-05-10T14:17:12.528Z,37.17
2023-05-10T14:19:40.120Z,37.41
2023-05-10T14:22:10.049Z,36.79
2023-05-10T14:24:37.440Z,36.59
2023-05-10T14:27:04.108Z,36.84
2023-05-10T14:29:30.692Z,36.73
2023-05-10T14:31:57.836Z,36.28
2023-05-10T14:34:24.592Z,36.55
2023-05-10T14:36:51.449Z,36.85
2023-05-10T14:39:18.065Z,36.66
2023-05-10T14:44:26.118Z,36.38
2023-05-10T14:46:52.954Z,36.39
2023-05-10T14:49:19.467Z,36.04
2023-05-10T14:51:46.785Z,36.69
2023-05-10T14:54:13.327Z,36.67
2023-05-10T14:59:21.589Z,37.60
2023-05-10T15:01:48.358Z,37.21
2023-05-10T15:04:17.438Z,36.51
2023-05-10T15:06:44.483Z,37.07
2023-05-10T15:09:11.057Z,36.88
2023-05-10T15:11:37.634Z,37.10
2023-05-10T15:14:04.239Z,36.81
2023-05-10T15:16:32.286Z,37.16
2023-05-10T15:19:01.146Z,37.38
2023-05-10T15:21:29.033Z,36.98
2023-05-10T15:23:55.528Z,37.19
2023-05-10T15:26:23.161Z,37.31
2023-05-10T15:28:49.959Z,37.47
2023-05-10T15:31:16.580Z,37.54
2023-05-10T15:33:43.139Z,37.22
2023-05-10T15:36:09.841Z,37.23
2023-05-10T15:38:37.780Z,37.49
2023-05-10T15:41:04.442Z,37.16
2023-05-10T15:43:31.072Z,37.41
2023-05-10T15:45:57.653Z,37.36
2023-05-10T15:48:24.340Z,37.46
2023-05-10T15:50:51.072Z,37.60
2023-05-10T15:53:17.770Z,37.24
2023-05-10T15:55:44.402Z,37.51
2023-05-10T15:58:11.548Z,37.49
2023-05-10T16:00:39.231Z,37.77
2023-05-10T16:03:06.895Z,37.63
2023-05-10T16:05:33.847Z,37.92
2023-05-10T16:08:03.184Z,38.06
2023-05-10T16:10:32.114Z,37.81
2023-05-10T16:12:58.721Z,37.79
2023-05-10T16:15:25.352Z,37.96
2023-05-10T16:17:52.090Z,38.24
2023-05-10T16:20:18.757Z,37.78
2023-05-10T16:22:45.355Z,37.86
2023-05-10T16:25:13.695Z,38.19
2023-05-10T16:27:40.470Z,37.97
2023-05-10T16:30:07.769Z,38.00
2023-05-10T16:32:34.358Z,38.30
2023-05-10T16:35:01.093Z,37.72
2023-05-10T16:37:28.186Z,37.95
2023-05-10T16:39:54.837Z,38.14
2023-05-10T16:42:21.882Z,38.39
2023-05-10T16:44:48.491Z,38.48
2023-05-10T16:47:15.070Z,38.17
2023-05-10T16:49:41.717Z,38.47
2023-05-10T16:52:08.482Z,38.91
2023-05-10T16:54:35.134Z,39.14
2023-05-10T16:57:02.416Z,39.04
2023-05-10T16:59:29.029Z,39.17
2023-05-10T17:01:55.877Z,39.05
2023-05-10T17:04:22.611Z,39.16
2023-05-10T17:06:49.206Z,39.25
2023-05-10T17:09:15.962Z,38.98
2023-05-10T17:11:42.727Z,39.34
2023-05-10T17:14:10.267Z,39.48
2023-05-10T17:16:36.990Z,39.36
2023-05-10T17:19:03.731Z,39.70
2023-05-10T17:21:30.344Z,39.64
2023-05-10T17:23:57.115Z,40.17
2023-05-10T17:26:23.852Z,40.17
2023-05-10T17:28:50.585Z,40.26
2023-05-10T17:31:17.288Z,40.31
2023-05-10T17:33:43.933Z,40.84
2023-05-10T17:36:11.136Z,40.66
2023-05-10T17:38:37.938Z,40.66
2023-05-10T17:41:04.585Z,41.15
2023-05-10T17:43:31.240Z,41.30
2023-05-10T17:45:57.993Z,41.33
2023-05-10T17:48:24.624Z,41.37
2023-05-10T17:50:51.560Z,41.99
2023-05-10T17:53:18.531Z,42.00
2023-05-10T17:55:45.315Z,42.53
2023-05-10T17:58:12.421Z,42.59
2023-05-10T18:00:39.113Z,43.02
2023-05-10T18:03:06.246Z,43.92
2023-05-10T18:05:37.600Z,44.92
2023-05-10T18:08:05.421Z,45.58
2023-05-10T18:10:32.233Z,45.82
2023-05-10T18:12:59.283Z,46.04
2023-05-10T18:15:26.698Z,46.43
2023-05-10T18:17:53.477Z,46.98
2023-05-10T18:20:20.152Z,47.36
2023-05-10T18:22:46.824Z,47.75
2023-05-10T18:25:13.523Z,47.92
2023-05-10T18:27:40.165Z,48.37
2023-05-10T18:30:09.476Z,48.83
2023-05-10T18:32:36.239Z,49.48
2023-05-10T18:35:04.177Z,50.12
2023-05-10T18:37:30.847Z,49.60
2023-05-10T18:39:57.928Z,49.00
2023-05-10T18:42:24.812Z,48.48
2023-05-10T18:44:51.408Z,48.74
2023-05-10T18:47:18.137Z,48.54
2023-05-10T18:49:46.395Z,48.39
2023-05-10T18:52:13.170Z,48.20
2023-05-10T18:54:39.859Z,48.29
2023-05-10T18:57:06.431Z,47.96
2023-05-10T18:59:33.698Z,47.97
2023-05-10T19:02:00.465Z,48.28
2023-05-10T19:04:27.202Z,48.24
2023-05-10T19:06:53.996Z,48.70
2023-05-10T19:09:21.245Z,49.02
2023-05-10T19:11:48.682Z,49.42
2023-05-10T19:14:15.864Z,49.30
2023-05-10T19:16:43.717Z,49.16
2023-05-10T19:19:10.699Z,49.06
2023-05-10T19:21:37.478Z,49.35
2023-05-10T19:24:04.194Z,49.04
2023-05-10T19:26:30.993Z,49.05
2023-05-10T19:28:58.040Z,49.05
2023-05-10T19:31:24.968Z,49.06
2023-05-10T19:33:52.128Z,49.59
2023-05-10T19:36:18.825Z,49.30
2023-05-10T19:38:45.572Z,48.98
2023-05-10T19:41:13.242Z,49.06
2023-05-10T19:43:39.909Z,49.21
2023-05-10T19:46:06.584Z,49.13
2023-05-10T19:48:33.457Z,49.60
2023-05-10T19:51:01.347Z,49.52
2023-05-10T19:53:28.284Z,49.55
2023-05-10T19:55:55.411Z,49.96
2023-05-10T19:58:22.403Z,50.31
2023-05-10T20:00:49.318Z,50.40
2023-05-10T20:03:16.636Z,50.30
2023-05-10T20:05:43.232Z,50.49
2023-05-10T20:08:10.031Z,50.64
2023-05-10T20:10:36.809Z,50.71
2023-05-10T20:13:03.642Z,50.52
2023-05-10T20:15:30.729Z,50.38
2023-05-10T20:17:57.594Z,50.34
2023-05-10T20:20:24.298Z,50.27
2023-05-10T20:22:51.262Z,50.37
2023-05-10T20:25:18.566Z,50.28
2023-05-10T20:27:45.557Z,50.30
2023-05-10T20:30:12.798Z,50.32
2023-05-10T20:32:39.881Z,50.38
2023-05-10T20:35:07.523Z,50.42
2023-05-10T20:37:34.563Z,50.38
2023-05-10T20:40:01.392Z,50.52
2023-05-10T20:42:28.670Z,50.55
2023-05-10T20:44:55.516Z,50.46
2023-05-10T20:47:23.745Z,50.39
2023-05-10T20:49:50.599Z,50.70
2023-05-10T20:52:17.403Z,50.54
2023-05-10T20:54:44.034Z,50.58
2023-05-10T20:57:13.026Z,50.53
2023-05-10T20:59:39.604Z,50.53
2023-05-10T21:02:06.317Z,50.54
2023-05-10T21:04:33.220Z,50.68
2023-05-10T21:07:00.037Z,50.71
2023-05-10T21:09:26.837Z,50.74
2023-05-10T21:11:53.849Z,50.79
2023-05-10T21:14:20.897Z,50.81
2023-05-10T21:16:47.565Z,50.81
2023-05-10T21:19:14.354Z,50.84
2023-05-10T21:21:41.708Z,50.83
2023-05-10T21:24:08.501Z,51.17
2023-05-10T21:26:35.254Z,51.24
2023-05-10T21:29:01.936Z,51.41
2023-05-10T21:31:28.852Z,51.45
2023-05-10T21:33:55.698Z,51.63
2023-05-10T21:36:22.466Z,52.39
2023-05-10T21:38:50.670Z,52.91
2023-05-10T21:41:17.731Z,53.56
2023-05-10T21:43:44.375Z,53.97
2023-05-10T21:46:13.077Z,54.41
2023-05-10T21:48:40.041Z,55.11
2023-05-10T21:51:06.890Z,55.57
2023-05-10T21:53:33.602Z,56.23
2023-05-10T21:56:00.190Z,56.62
2023-05-10T21:58:28.318Z,56.80
2023-05-10T22:00:54.978Z,57.25
2023-05-10T22:03:21.942Z,57.78
2023-05-10T22:05:48.630Z,58.19
2023-05-10T22:08:15.262Z,58.25
2023-05-10T22:10:41.956Z,58.91
2023-05-10T22:13:08.694Z,59.06
2023-05-10T22:15:36.700Z,59.20
2023-05-10T22:18:03.437Z,59.74
2023-05-10T22:20:30.101Z,60.31
2023-05-10T22:22:56.833Z,60.88
2023-05-10T22:25:23.529Z,61.29
2023-05-10T22:27:50.219Z,61.66
2023-05-10T22:30:17.157Z,61.81
2023-05-10T22:32:44.718Z,62.05
2023-05-10T22:35:11.648Z,62.41
2023-05-10T22:37:38.226Z,62.66
2023-05-10T22:40:05.337Z,63.00
2023-05-10T22:42:32.273Z,63.40
2023-05-10T22:44:58.971Z,63.53
2023-05-10T22:47:25.743Z,63.84
2023-05-10T22:49:52.476Z,64.32
2023-05-10T22:52:19.157Z,64.51
2023-05-10T22:54:45.832Z,64.72
2023-05-10T22:57:12.727Z,65.09
2023-05-10T22:59:39.325Z,64.95
2023-05-10T23:02:06.154Z,65.79
2023-05-10T23:04:32.974Z,65.58
2023-05-10T23:06:59.589Z,66.13
2023-05-10T23:09:26.247Z,66.37
2023-05-10T23:11:52.794Z,66.36
2023-05-10T23:14:19.426Z,66.54
2023-05-10T23:16:46.980Z,66.80
2023-05-10T23:19:13.694Z,67.08
2023-05-10T23:21:40.939Z,67.45
2023-05-10T23:24:08.783Z,67.89
2023-05-10T23:26:36.347Z,67.54
2023-05-10T23:29:03.057Z,68.07
2023-05-10T23:31:30.245Z,68.27
2023-05-10T23:33:56.813Z,68.70
2023-05-10T23:36:23.477Z,68.73
2023-05-10T23:38:50.044Z,68.77
2023-05-10T23:41:16.641Z,69.24
2023-05-10T23:43:43.676Z,69.15
2023-05-10T23:46:10.753Z,69.44
2023-05-10T23:48:37.416Z,69.29
2023-05-10T23:51:04.248Z,69.61
2023-05-10T23:53:30.837Z,70.03
2023-05-10T23:55:57.511Z,69.94
2023-05-10T23:58:24.260Z,70.16
